createdAt,value
2023-03-04T00:04:03.101Z,60.71
2023-03-04T00:08:06.207Z,60.77
2023-03-04T00:12:09.640Z,61.00
2023-03-04T00:16:14.268Z,61.02
2023-03-04T00:20:17.384Z,61.18
2023-03-04T00:24:20.362Z,60.85
2023-03-04T00:28:23.484Z,61.06
2023-03-04T00:32:27.953Z,60.85
2023-03-04T00:36:31.690Z,61.28
2023-03-04T00:40:34.935Z,61.29
2023-03-04T00:44:38.513Z,61.25
2023-03-04T00:48:42.960Z,61.42
2023-03-04T00:52:46.160Z,61.36
2023-03-04T00:56:49.409Z,61.58
2023-03-04T01:00:53.307Z,61.60
2023-03-04T01:04:57.762Z,61.41
2023-03-04T01:09:00.801Z,61.61
2023-03-04T01:13:04.298Z,61.52
2023-03-04T01:17:07.394Z,61.52
2023-03-04T01:21:12.673Z,61.31
2023-03-04T01:25:15.893Z,60.98
2023-03-04T01:29:19.021Z,61.15
2023-03-04T01:33:22.757Z,61.12
2023-03-04T01:37:27.833Z,61.22
2023-03-04T01:41:31.057Z,61.32
2023-03-04T01:45:39.145Z,61.35
2023-03-04T01:49:45.003Z,61.59
2023-03-04T01:53:53.418Z,61.60
2023-03-04T01:57:57.447Z,61.96
2023-03-04T02:02:01.796Z,62.12
2023-03-04T02:06:06.698Z,62.29
2023-03-04T02:10:14.023Z,62.55
2023-03-04T02:14:26.583Z,62.63
2023-03-04T02:18:29.554Z,62.62
2023-03-04T02:22:34.129Z,62.90
2023-03-04T02:26:41.382Z,62.66
2023-03-04T02:30:44.646Z,62.74
2023-03-04T02:34:49.715Z,63.04
2023-03-04T02:38:55.584Z,62.98
2023-03-04T02:43:01.637Z,63.29
2023-03-04T02:47:07.061Z,63.12
2023-03-04T02:51:10.425Z,63.23
2023-03-04T02:55:13.608Z,63.05
2023-03-04T02:59:18.575Z,63.18
2023-03-04T03:03:21.642Z,62.81
2023-03-04T03:07:24.740Z,62.92
2023-03-04T03:11:28.417Z,62.91
2023-03-04T03:15:33.512Z,63.01
2023-03-04T03:19:36.710Z,63.06
2023-03-04T03:23:43.367Z,63.15
2023-03-04T03:27:46.516Z,63.06
2023-03-04T03:31:51.663Z,63.15
2023-03-04T03:35:57.430Z,63.12
2023-03-04T03:40:00.936Z,63.25
2023-03-04T03:44:04.038Z,63.63
2023-03-04T03:48:19.708Z,63.76
2023-03-04T03:52:24.149Z,63.63
2023-03-04T03:56:27.153Z,63.75
2023-03-04T04:00:30.307Z,64.22
2023-03-04T04:04:33.443Z,64.50
2023-03-04T04:08:37.900Z,64.75
2023-03-04T04:12:41.128Z,65.11
2023-03-04T04:16:44.226Z,65.09
2023-03-04T04:20:47.731Z,65.17
2023-03-04T04:24:52.134Z,64.81
2023-03-04T04:28:55.160Z,64.88
2023-03-04T04:33:01.634Z,64.87
2023-03-04T04:37:04.597Z,64.83
2023-03-04T04:41:19.667Z,64.79
2023-03-04T04:45:22.676Z,64.88
2023-03-04T04:49:25.726Z,65.07
2023-03-04T04:53:28.800Z,65.25
2023-03-04T04:57:34.289Z,65.20
2023-03-04T05:01:37.685Z,65.51
2023-03-04T05:05:41.004Z,65.74
2023-03-04T05:09:43.971Z,65.88
2023-03-04T05:13:49.333Z,66.04
2023-03-04T05:17:52.343Z,66.24
2023-03-04T05:21:55.390Z,66.45
2023-03-04T05:25:58.378Z,66.77
2023-03-04T05:30:02.867Z,67.03
2023-03-04T05:34:05.941Z,67.55
2023-03-04T05:38:11.833Z,67.78
2023-03-04T05:42:14.817Z,68.28
2023-03-04T05:46:25.409Z,68.40
2023-03-04T05:50:28.546Z,68.63
2023-03-04T05:54:31.810Z,68.84
2023-03-04T05:58:34.796Z,68.80
2023-03-04T06:02:39.373Z,68.96
2023-03-04T06:06:42.675Z,68.94
2023-03-04T06:10:45.748Z,69.20
2023-03-04T06:14:48.813Z,69.29
2023-03-04T06:18:53.253Z,69.25
2023-03-04T06:22:56.238Z,69.44
2023-03-04T06:26:59.533Z,69.61
2023-03-04T06:31:02.538Z,69.64
2023-03-04T06:35:08.024Z,69.75
2023-03-04T06:39:11.490Z,70.08
2023-03-04T06:43:14.571Z,70.84
2023-03-04T06:47:18.835Z,70.27
2023-03-04T06:51:23.395Z,70.18
2023-03-04T06:55:26.416Z,70.16
2023-03-04T06:59:29.497Z,70.19
2023-03-04T07:03:32.458Z,72.24
2023-03-04T07:07:37.417Z,72.86
2023-03-04T07:11:40.648Z,73.89
2023-03-04T07:15:43.730Z,74.23
2023-03-04T07:19:46.720Z,73.37
2023-03-04T07:23:51.182Z,72.51
2023-03-04T07:27:54.175Z,72.40
2023-03-04T07:31:57.483Z,72.01
2023-03-04T07:36:00.802Z,71.35
2023-03-04T07:40:08.173Z,70.55
2023-03-04T07:44:13.607Z,70.46
2023-03-04T07:48:16.715Z,69.95
2023-03-04T07:52:19.730Z,69.47
2023-03-04T07:56:26.281Z,68.87
2023-03-04T08:00:29.253Z,68.66
2023-03-04T08:04:32.375Z,68.52
2023-03-04T08:08:35.789Z,67.64
2023-03-04T08:12:40.295Z,66.61
2023-03-04T08:16:43.351Z,66.08
2023-03-04T08:20:46.406Z,65.95
2023-03-04T08:24:49.370Z,65.68
2023-03-04T08:28:55.007Z,65.23
2023-03-04T08:32:58.010Z,64.56
2023-03-04T08:37:01.108Z,64.17
2023-03-04T08:41:04.858Z,63.88
2023-03-04T08:45:10.234Z,62.83
2023-03-04T08:49:14.526Z,62.29
2023-03-04T08:53:18.867Z,62.09
2023-03-04T08:57:21.848Z,60.47
2023-03-04T09:01:26.312Z,60.63
2023-03-04T09:05:29.276Z,59.99
2023-03-04T09:09:33.208Z,59.87
2023-03-04T09:13:37.843Z,58.64
2023-03-04T09:17:42.818Z,58.07
2023-03-04T09:21:45.813Z,56.94
2023-03-04T09:25:49.730Z,56.43
2023-03-04T09:29:52.718Z,55.45
2023-03-04T09:33:59.377Z,56.06
2023-03-04T09:38:02.639Z,54.85
2023-03-04T09:42:08.800Z,53.92
2023-03-04T09:46:16.014Z,53.92
2023-03-04T09:50:21.674Z,53.00
2023-03-04T09:54:43.474Z,51.51
2023-03-04T09:58:58.484Z,50.97
2023-03-04T10:03:11.504Z,50.23
2023-03-04T10:07:20.203Z,50.34
2023-03-04T10:11:28.282Z,48.81
2023-03-04T10:15:36.434Z,49.01
2023-03-04T10:19:52.272Z,48.53
2023-03-04T10:23:59.357Z,48.77
2023-03-04T10:28:05.679Z,48.65
2023-03-04T10:32:13.491Z,47.45
2023-03-04T10:36:37.002Z,46.93
2023-03-04T10:40:44.562Z,46.86
2023-03-04T10:44:54.091Z,45.44
2023-03-04T10:48:57.165Z,45.88
2023-03-04T10:53:00.416Z,45.40
2023-03-04T10:57:06.881Z,45.16
2023-03-04T11:01:17.628Z,44.35
2023-03-04T11:05:23.036Z,44.93
2023-03-04T11:09:28.107Z,44.81
2023-03-04T11:13:33.655Z,43.86
2023-03-04T11:17:46.468Z,44.54
2023-03-04T11:21:50.652Z,43.61
2023-03-04T11:26:00.113Z,43.75
2023-03-04T11:30:23.117Z,43.48
2023-03-04T11:34:35.173Z,42.99
2023-03-04T11:38:43.308Z,43.41
2023-03-04T11:42:52.177Z,43.54
2023-03-04T11:47:13.985Z,43.34
2023-03-04T11:51:24.082Z,43.05
2023-03-04T11:55:35.565Z,42.83
2023-03-04T11:59:56.961Z,43.08
2023-03-04T12:04:16.526Z,42.70
2023-03-04T12:08:45.917Z,43.15
2023-03-04T12:13:03.184Z,43.43
2023-03-04T12:17:30.569Z,43.17
2023-03-04T12:21:55.792Z,42.68
2023-03-04T12:26:08.004Z,43.12
2023-03-04T12:30:27.561Z,42.00
2023-03-04T12:34:53.668Z,41.94
2023-03-04T12:39:34.657Z,41.73
2023-03-04T12:43:47.763Z,42.11
2023-03-04T12:48:01.709Z,41.97
2023-03-04T12:52:16.365Z,41.72
2023-03-04T12:56:27.899Z,42.39
2023-03-04T13:00:43.026Z,42.70
2023-03-04T13:04:58.759Z,42.17
2023-03-04T13:09:11.756Z,42.23
2023-03-04T13:13:39.446Z,42.10
2023-03-04T13:17:44.899Z,41.33
2023-03-04T13:21:50.638Z,40.83
2023-03-04T13:26:18.573Z,41.85
2023-03-04T13:30:42.627Z,41.51
2023-03-04T13:34:51.811Z,42.26
2023-03-04T13:39:03.840Z,42.57
2023-03-04T13:43:27.066Z,42.54
2023-03-04T13:47:48.828Z,42.91
2023-03-04T13:51:52.800Z,42.52
2023-03-04T13:56:24.056Z,42.76
2023-03-04T14:00:27.752Z,43.24
2023-03-04T14:04:38.380Z,43.94
2023-03-04T14:08:41.363Z,43.86
2023-03-04T14:12:47.648Z,44.12
2023-03-04T14:16:53.563Z,43.38
2023-03-04T14:21:01.813Z,43.09
2023-03-04T14:25:07.788Z,43.91
2023-03-04T14:29:25.600Z,44.00
2023-03-04T14:33:30.756Z,44.49
2023-03-04T14:37:44.139Z,44.96
2023-03-04T14:41:49.022Z,45.22
2023-03-04T14:45:54.624Z,45.22
2023-03-04T14:49:57.970Z,45.90
2023-03-04T14:54:02.466Z,46.11
2023-03-04T14:58:10.749Z,46.31
2023-03-04T15:02:30.992Z,46.50
2023-03-04T15:06:36.474Z,46.54
2023-03-04T15:10:41.133Z,46.71
2023-03-04T15:14:45.790Z,47.45
2023-03-04T15:18:56.642Z,47.49
2023-03-04T15:23:02.926Z,47.93
2023-03-04T15:27:11.374Z,47.87
2023-03-04T15:31:18.118Z,47.69
2023-03-04T15:35:22.020Z,47.49
2023-03-04T15:39:26.412Z,47.56
2023-03-04T15:43:30.931Z,47.56
2023-03-04T15:47:33.892Z,47.66
2023-03-04T15:51:37.294Z,48.13
2023-03-04T15:55:40.560Z,48.58
2023-03-04T15:59:44.997Z,48.72
2023-03-04T16:03:47.992Z,48.85
2023-03-04T16:07:52.523Z,48.89
2023-03-04T16:12:01.683Z,49.18
2023-03-04T16:16:06.825Z,49.28
2023-03-04T16:20:11.604Z,49.71
2023-03-04T16:24:19.002Z,49.80
2023-03-04T16:28:22.400Z,50.17
2023-03-04T16:32:26.904Z,50.14
2023-03-04T16:36:30.689Z,50.69
2023-03-04T16:40:34.179Z,50.51
2023-03-04T16:44:37.147Z,50.60
2023-03-04T16:48:42.356Z,50.89
2023-03-04T16:52:47.042Z,50.96
2023-03-04T16:56:50.138Z,51.72
2023-03-04T17:00:53.150Z,51.58
2023-03-04T17:04:59.380Z,51.59
2023-03-04T17:09:02.405Z,52.09
2023-03-04T17:13:05.994Z,52.23
2023-03-04T17:17:09.236Z,52.50
2023-03-04T17:21:16.271Z,52.97
2023-03-04T17:25:19.717Z,53.14
2023-03-04T17:29:22.932Z,53.30
2023-03-04T17:33:25.936Z,53.41
2023-03-04T17:37:30.363Z,53.47
2023-03-04T17:41:35.723Z,53.47
2023-03-04T17:45:39.303Z,53.77
2023-03-04T17:49:42.418Z,54.03
2023-03-04T17:53:46.854Z,54.10
2023-03-04T17:57:52.871Z,54.29
2023-03-04T18:01:55.985Z,54.83
2023-03-04T18:05:59.074Z,54.83
2023-03-04T18:10:03.580Z,54.97
2023-03-04T18:14:06.952Z,55.20
2023-03-04T18:18:10.057Z,55.19
2023-03-04T18:22:13.335Z,55.44
2023-03-04T18:26:21.054Z,55.54
2023-03-04T18:30:27.295Z,55.83
2023-03-04T18:34:30.399Z,55.95
2023-03-04T18:38:33.880Z,56.05
2023-03-04T18:42:38.609Z,56.13
2023-03-04T18:46:45.189Z,56.24
2023-03-04T18:50:48.478Z,56.23
2023-03-04T18:54:51.537Z,56.84
2023-03-04T18:58:56.183Z,56.72
2023-03-04T19:03:02.270Z,56.78
2023-03-04T19:07:05.400Z,56.92
2023-03-04T19:11:08.386Z,57.07
2023-03-04T19:15:13.769Z,57.07
2023-03-04T19:19:16.752Z,57.18
2023-03-04T19:23:19.823Z,56.98
2023-03-04T19:27:23.276Z,56.96
2023-03-04T19:31:28.007Z,57.00
2023-03-04T19:35:32.479Z,57.02
2023-03-04T19:39:35.645Z,56.96
2023-03-04T19:43:39.597Z,56.87
2023-03-04T19:47:44.210Z,56.98
2023-03-04T19:51:47.206Z,56.62
2023-03-04T19:55:50.667Z,56.98
2023-03-04T19:59:53.707Z,57.10
2023-03-04T20:04:00.006Z,57.02
2023-03-04T20:08:03.171Z,57.30
2023-03-04T20:12:06.935Z,57.39
2023-03-04T20:16:10.871Z,57.37
2023-03-04T20:20:16.489Z,57.54
2023-03-04T20:24:23.002Z,57.47
2023-03-04T20:28:27.154Z,57.47
2023-03-04T20:32:30.226Z,57.76
2023-03-04T20:36:35.961Z,57.84
2023-03-04T20:40:40.462Z,57.63
2023-03-04T20:44:43.522Z,57.92
2023-03-04T20:48:46.514Z,58.43
2023-03-04T20:52:51.068Z,58.10
2023-03-04T20:56:54.048Z,58.47
2023-03-04T21:00:57.141Z,58.33
2023-03-04T21:05:01.346Z,58.29
2023-03-04T21:09:07.679Z,58.67
2023-03-04T21:13:16.541Z,58.66
2023-03-04T21:17:19.690Z,58.71
2023-03-04T21:21:24.284Z,58.76
2023-03-04T21:25:28.784Z,58.73
2023-03-04T21:29:32.140Z,58.69
2023-03-04T21:33:37.038Z,58.96
2023-03-04T21:37:41.692Z,58.54
2023-03-04T21:41:46.610Z,58.54
2023-03-04T21:45:54.376Z,58.69
2023-03-04T21:49:57.426Z,58.62
2023-03-04T21:54:00.434Z,58.70
2023-03-04T21:58:04.923Z,58.74
2023-03-04T22:02:08.589Z,58.57
2023-03-04T22:06:13.085Z,58.59
2023-03-04T22:10:16.358Z,58.75
2023-03-04T22:14:20.805Z,58.74
2023-03-04T22:18:23.816Z,58.60
2023-03-04T22:22:28.054Z,58.75
2023-03-04T22:26:32.590Z,58.82
2023-03-04T22:30:37.585Z,58.25
2023-03-04T22:34:40.880Z,58.72
2023-03-04T22:38:44.766Z,58.58
2023-03-04T22:42:48.904Z,58.84
2023-03-04T22:46:53.423Z,58.94
2023-03-04T22:50:56.428Z,59.01
2023-03-04T22:55:02.179Z,59.10
2023-03-04T22:59:05.136Z,58.88
2023-03-04T23:03:10.393Z,58.87
2023-03-04T23:07:13.340Z,58.78
2023-03-04T23:11:19.450Z,58.80
2023-03-04T23:15:22.824Z,59.08
2023-03-04T23:19:27.280Z,59.03
2023-03-04T23:23:30.269Z,59.30
2023-03-04T23:27:33.335Z,59.09
2023-03-04T23:31:36.920Z,59.14
2023-03-04T23:35:41.386Z,59.08
2023-03-04T23:39:44.599Z,59.32
2023-03-04T23:43:48.322Z,59.21
2023-03-04T23:47:51.377Z,59.29
2023-03-04T23:51:55.981Z,59.21
2023-03-04T23:55:58.947Z,59.35
